Terminal Aerodrome Forecast
Issued by NWS Tampa Bay Area, FL

Home | Current Version | Previous Version | Text Only | Print | Product List | Glossary On
Versions: 1 2 3 4 5 6 7 8 9 10 11 12 13 14 15 16 17 18 19 20 21 22 23 24 25
000
FTUS42 KTBW 201100 RRA
TAFTPA
TAF
KTPA 201141Z 2012/2112 06004KT P6SM SCT008 OVC030
      TEMPO 2012/2014 -RA BKN008
     FM201400 VRB04KT P6SM VCSH SCT010 OVC030
      TEMPO 2014/2016 BKN010
     FM201800 28006KT P6SM VCSH SCT015 OVC040
     FM210100 VRB03KT P6SM SCT020 BKN050=

USA.gov is the U.S. government's official web portal to all federal, state and local government web resources and services.